createdAt,value
2018-12-20T00:00:20.196Z,90.20
2018-12-20T00:02:47.732Z,90.10
2018-12-20T00:05:15.844Z,90.10
2018-12-20T00:10:11.613Z,90.20
2018-12-20T00:12:40.195Z,90.20
2018-12-20T00:15:07.874Z,90.10
2018-12-20T00:17:41.496Z,90.10
2018-12-20T00:20:09.114Z,89.60
2018-12-20T00:22:37.151Z,89.80
2018-12-20T00:27:33.214Z,89.10
2018-12-20T00:34:57.554Z,89.40
2018-12-20T00:37:25.160Z,89.30
2018-12-20T00:39:52.762Z,89.40
2018-12-20T00:44:47.912Z,89.70
2018-12-20T00:47:17.062Z,89.80
2018-12-20T00:52:14.190Z,89.50
2018-12-20T00:54:41.731Z,89.80
2018-12-20T00:57:11.597Z,90.50
2018-12-20T01:02:08.059Z,89.40
2018-12-20T01:04:35.744Z,89.20
2018-12-20T01:07:03.771Z,89.90
2018-12-20T01:09:31.362Z,89.80
2018-12-20T01:11:59.747Z,89.90
2018-12-20T01:14:27.330Z,90.00
2018-12-20T01:16:55.141Z,90.00
2018-12-20T01:19:22.655Z,90.00
2018-12-20T01:21:50.703Z,90.10
2018-12-20T01:24:18.269Z,89.80
2018-12-20T01:26:48.957Z,89.70
2018-12-20T01:31:44.583Z,89.90
2018-12-20T01:34:12.283Z,90.10
2018-12-20T01:36:39.896Z,89.90
2018-12-20T01:39:08.195Z,89.30
2018-12-20T01:41:35.979Z,88.90
2018-12-20T01:44:03.534Z,89.50
2018-12-20T01:46:31.398Z,89.50
2018-12-20T01:51:26.466Z,89.10
2018-12-20T01:53:54.290Z,89.20
2018-12-20T01:56:22.087Z,89.10
2018-12-20T01:58:49.659Z,89.00
2018-12-20T02:01:17.190Z,89.70
2018-12-20T02:03:44.981Z,89.80
2018-12-20T02:06:12.541Z,89.60
2018-12-20T02:08:40.021Z,89.50
2018-12-20T02:11:07.555Z,89.40
2018-12-20T02:13:35.439Z,89.60
2018-12-20T02:16:03.287Z,90.00
2018-12-20T02:18:30.774Z,89.90
2018-12-20T02:20:58.303Z,89.50
2018-12-20T02:23:26.114Z,90.10
2018-12-20T02:28:21.455Z,90.10
2018-12-20T02:30:49.035Z,90.10
2018-12-20T02:33:16.650Z,90.20
2018-12-20T02:35:45.371Z,90.10
2018-12-20T02:38:12.973Z,90.00
2018-12-20T02:40:41.387Z,90.00
2018-12-20T02:43:09.166Z,90.40
2018-12-20T02:45:37.475Z,90.10
2018-12-20T02:48:05.374Z,90.20
2018-12-20T02:50:33.178Z,90.10
2018-12-20T02:53:00.910Z,90.00
2018-12-20T02:55:29.169Z,90.10
2018-12-20T02:57:56.879Z,90.00
2018-12-20T03:00:24.681Z,89.90
2018-12-20T03:02:52.969Z,89.70
2018-12-20T03:05:20.503Z,90.10
2018-12-20T03:07:48.399Z,90.00
2018-12-20T03:10:16.026Z,89.20
2018-12-20T03:12:43.752Z,89.50
2018-12-20T03:15:19.711Z,89.80
2018-12-20T03:17:40.758Z,89.40
2018-12-20T03:20:08.444Z,89.30
2018-12-20T03:22:35.934Z,88.80
2018-12-20T03:25:03.952Z,89.30
2018-12-20T03:27:31.656Z,90.00
2018-12-20T03:29:59.401Z,90.10
2018-12-20T03:32:27.665Z,90.20
2018-12-20T03:34:55.534Z,90.70
2018-12-20T03:37:23.185Z,90.20
2018-12-20T03:44:45.769Z,90.00
2018-12-20T03:47:13.299Z,90.00
2018-12-20T03:49:40.909Z,90.10
2018-12-20T03:54:35.845Z,90.20
2018-12-20T03:57:03.457Z,90.00
2018-12-20T03:59:30.957Z,89.70
2018-12-20T04:01:58.572Z,89.50
2018-12-20T04:04:27.104Z,89.00
2018-12-20T04:06:54.973Z,89.10
2018-12-20T04:11:50.290Z,89.10
2018-12-20T04:14:17.895Z,89.30
2018-12-20T04:16:45.372Z,89.10
2018-12-20T04:32:12.689Z,89.30
2018-12-20T04:34:40.451Z,89.50
2018-12-20T04:39:35.488Z,90.20
2018-12-20T04:42:03.734Z,90.20
2018-12-20T04:44:31.457Z,90.10
2018-12-20T04:46:59.685Z,90.20
2018-12-20T04:49:27.987Z,90.10
2018-12-20T04:51:57.466Z,90.20
2018-12-20T04:56:57.445Z,90.00
2018-12-20T04:59:25.342Z,90.00
2018-12-20T05:04:23.803Z,90.00
2018-12-20T05:09:19.831Z,90.40
2018-12-20T05:11:48.268Z,90.10
2018-12-20T05:16:44.321Z,90.30
2018-12-20T05:19:11.852Z,90.40
2018-12-20T05:21:39.973Z,90.40
2018-12-20T05:24:07.420Z,90.40
2018-12-20T05:26:34.869Z,90.40
2018-12-20T05:29:02.461Z,90.40
2018-12-20T05:31:30.094Z,90.40
2018-12-20T05:33:57.694Z,90.90
2018-12-20T05:36:25.412Z,90.70
2018-12-20T05:38:53.647Z,90.70
2018-12-20T05:41:21.103Z,90.80
2018-12-20T05:43:48.778Z,90.80
2018-12-20T05:46:16.389Z,90.60
2018-12-20T05:48:44.133Z,90.90
2018-12-20T05:51:11.770Z,90.60
2018-12-20T05:53:39.417Z,90.50
2018-12-20T05:58:34.601Z,90.40
2018-12-20T06:03:29.811Z,90.40
2018-12-20T06:05:57.275Z,90.40
2018-12-20T06:10:52.515Z,90.50
2018-12-20T06:13:20.144Z,90.60
2018-12-20T06:15:48.134Z,90.50
2018-12-20T06:18:16.297Z,90.40
2018-12-20T06:20:44.631Z,90.60
2018-12-20T06:23:12.288Z,90.40
2018-12-20T06:28:07.505Z,90.40
2018-12-20T06:30:35.694Z,90.30
2018-12-20T06:33:03.258Z,90.60
2018-12-20T06:35:30.755Z,90.60
2018-12-20T06:37:58.352Z,90.60
2018-12-20T06:40:26.536Z,90.60
2018-12-20T06:42:54.092Z,90.30
2018-12-20T06:45:21.586Z,90.70
2018-12-20T06:47:49.176Z,90.90
2018-12-20T06:50:16.670Z,90.70
2018-12-20T06:52:44.835Z,90.80
2018-12-20T06:55:12.566Z,91.00
2018-12-20T06:57:40.160Z,90.80
2018-12-20T07:00:08.553Z,90.50
2018-12-20T07:02:36.151Z,90.70
2018-12-20T07:05:04.231Z,90.60
2018-12-20T07:07:31.765Z,90.40
2018-12-20T07:09:59.225Z,90.60
2018-12-20T07:12:27.384Z,90.80
2018-12-20T07:14:55.485Z,91.00
2018-12-20T07:17:23.138Z,90.90
2018-12-20T07:19:51.272Z,90.90
2018-12-20T07:22:18.734Z,90.90
2018-12-20T07:24:46.248Z,90.80
2018-12-20T07:27:13.685Z,90.70
2018-12-20T07:29:41.739Z,90.90
2018-12-20T07:32:09.142Z,90.70
2018-12-20T07:34:36.775Z,90.50
2018-12-20T07:37:04.318Z,91.00
2018-12-20T07:39:32.452Z,91.10
2018-12-20T07:42:00.111Z,91.40
2018-12-20T07:46:55.031Z,91.00
2018-12-20T07:54:18.718Z,91.00
2018-12-20T07:59:13.689Z,90.50
2018-12-20T08:04:08.707Z,90.60
2018-12-20T08:09:06.881Z,90.90
2018-12-20T08:11:35.039Z,90.70
2018-12-20T08:14:02.905Z,90.70
2018-12-20T08:23:52.582Z,90.70
2018-12-20T08:26:20.011Z,90.40
2018-12-20T08:28:47.417Z,90.60
2018-12-20T08:33:43.554Z,90.80
2018-12-20T08:36:11.239Z,90.90
2018-12-20T08:38:38.724Z,90.90
2018-12-20T08:41:06.257Z,90.90
2018-12-20T08:43:33.871Z,90.80
2018-12-20T08:46:01.493Z,91.00
2018-12-20T08:48:28.958Z,91.10
2018-12-20T08:50:56.478Z,90.80
2018-12-20T08:53:24.129Z,90.90
2018-12-20T08:55:51.590Z,91.00
2018-12-20T08:58:20.161Z,91.10
2018-12-20T09:00:48.294Z,90.80
2018-12-20T09:03:15.857Z,90.90
2018-12-20T09:05:43.474Z,91.20
2018-12-20T09:08:10.962Z,91.10
2018-12-20T09:10:38.724Z,91.30
2018-12-20T09:15:35.595Z,91.40
2018-12-20T09:18:03.266Z,91.00
2018-12-20T09:20:32.836Z,91.10
2018-12-20T09:23:00.522Z,91.30
2018-12-20T09:25:27.949Z,90.80
2018-12-20T09:27:55.407Z,90.70
2018-12-20T09:30:30.278Z,90.90
2018-12-20T09:32:52.392Z,90.70
2018-12-20T09:35:19.854Z,90.60
2018-12-20T09:37:47.307Z,91.10
2018-12-20T09:40:14.863Z,91.40
2018-12-20T09:42:42.360Z,91.10
2018-12-20T09:45:09.838Z,91.20
2018-12-20T09:47:43.124Z,91.10
2018-12-20T09:50:10.590Z,91.10
2018-12-20T09:52:38.046Z,90.80
2018-12-20T09:55:05.719Z,91.00
2018-12-20T09:57:35.146Z,90.20
2018-12-20T10:00:03.352Z,90.50
2018-12-20T10:02:30.849Z,90.30
2018-12-20T10:04:58.425Z,90.00
2018-12-20T10:07:26.131Z,90.10
2018-12-20T10:09:53.591Z,89.80
2018-12-20T10:14:48.856Z,89.80
2018-12-20T10:17:19.955Z,89.40
2018-12-20T10:19:48.522Z,89.90
2018-12-20T10:24:43.679Z,90.20
2018-12-20T10:27:11.213Z,90.30
2018-12-20T10:29:38.714Z,90.70
2018-12-20T10:32:06.336Z,91.20
2018-12-20T10:34:33.844Z,91.50
2018-12-20T10:37:01.401Z,91.10
2018-12-20T10:39:28.847Z,91.10
2018-12-20T10:41:56.508Z,91.10
2018-12-20T10:44:24.011Z,91.10
2018-12-20T10:46:51.535Z,91.00
2018-12-20T10:49:19.059Z,90.60
2018-12-20T10:51:47.325Z,90.50
2018-12-20T10:54:14.794Z,90.40
2018-12-20T10:56:42.963Z,90.80
2018-12-20T10:59:10.573Z,90.40
2018-12-20T11:01:43.782Z,90.10
2018-12-20T11:04:21.874Z,90.30
2018-12-20T11:06:55.590Z,90.30
2018-12-20T11:09:29.109Z,90.20
2018-12-20T11:12:02.329Z,90.20
2018-12-20T11:14:29.912Z,90.10
2018-12-20T11:16:57.410Z,90.10
2018-12-20T11:19:24.971Z,90.20
2018-12-20T11:21:52.526Z,90.30
2018-12-20T11:24:20.393Z,90.30
2018-12-20T11:26:48.567Z,90.30
2018-12-20T11:29:16.384Z,90.00
2018-12-20T11:31:43.943Z,89.70
2018-12-20T11:34:11.540Z,90.00
2018-12-20T11:36:39.570Z,90.00
2018-12-20T11:39:08.456Z,90.20
2018-12-20T11:41:36.530Z,90.30
2018-12-20T11:44:04.476Z,90.10
2018-12-20T11:46:32.566Z,90.00
2018-12-20T11:49:00.271Z,90.20
2018-12-20T11:51:27.836Z,90.10
2018-12-20T11:53:55.396Z,90.10
2018-12-20T11:56:23.443Z,90.00
2018-12-20T11:58:50.943Z,89.40
2018-12-20T12:03:45.959Z,89.00
2018-12-20T12:06:13.495Z,88.90
2018-12-20T12:08:40.953Z,89.00
2018-12-20T12:13:37.366Z,86.80
2018-12-20T12:16:04.994Z,86.60
2018-12-20T12:18:32.478Z,86.50
2018-12-20T12:21:00.048Z,86.40
2018-12-20T12:23:27.619Z,87.00
2018-12-20T12:25:55.069Z,86.00
2018-12-20T12:28:22.651Z,85.90
2018-12-20T12:30:50.207Z,85.50
2018-12-20T12:33:18.492Z,85.60
2018-12-20T12:35:46.090Z,86.00
2018-12-20T12:38:13.528Z,85.80
2018-12-20T12:40:41.188Z,85.50
2018-12-20T12:43:08.910Z,86.10
2018-12-20T12:45:36.404Z,84.70
2018-12-20T12:50:31.960Z,84.60
2018-12-20T12:55:26.990Z,83.40
2018-12-20T12:58:04.250Z,82.20
2018-12-20T13:00:26.033Z,82.70
2018-12-20T13:05:21.200Z,82.20
2018-12-20T13:07:49.441Z,82.80
2018-12-20T13:10:16.905Z,83.00
2018-12-20T13:12:44.570Z,83.40
2018-12-20T13:15:12.217Z,83.80
2018-12-20T13:17:40.460Z,83.80
2018-12-20T13:20:09.935Z,83.20
2018-12-20T13:22:38.313Z,84.00
2018-12-20T13:25:07.052Z,84.30
2018-12-20T13:27:34.581Z,84.40
2018-12-20T13:30:02.343Z,84.30
2018-12-20T13:32:29.830Z,84.20
2018-12-20T13:34:57.327Z,83.90
2018-12-20T13:37:24.959Z,84.00
2018-12-20T13:40:08.456Z,84.30
2018-12-20T13:42:39.539Z,84.00
2018-12-20T13:45:08.456Z,84.20
2018-12-20T13:47:36.244Z,83.80
2018-12-20T13:50:09.969Z,84.10
2018-12-20T13:52:38.964Z,84.50
2018-12-20T13:55:06.667Z,84.20
2018-12-20T13:57:39.644Z,84.70
2018-12-20T14:00:12.473Z,84.40
2018-12-20T14:02:40.435Z,84.50
2018-12-20T14:05:08.572Z,84.40
2018-12-20T14:12:39.867Z,84.50
2018-12-20T14:15:08.734Z,84.90
2018-12-20T14:17:37.849Z,85.00
2018-12-20T14:20:08.362Z,85.10
2018-12-20T14:22:37.332Z,85.50
2018-12-20T14:25:06.732Z,85.60
2018-12-20T14:27:34.347Z,85.10
2018-12-20T14:30:01.988Z,85.20
2018-12-20T14:32:31.206Z,85.20
2018-12-20T14:35:01.097Z,84.80
2018-12-20T14:37:29.263Z,84.70
2018-12-20T14:39:58.162Z,85.30
2018-12-20T14:42:29.548Z,85.90
2018-12-20T14:44:58.036Z,86.10
2018-12-20T14:47:26.218Z,85.80
2018-12-20T14:49:55.718Z,85.90
2018-12-20T14:52:26.820Z,86.00
2018-12-20T14:54:55.968Z,86.10
2018-12-20T14:57:23.672Z,86.70
2018-12-20T14:59:51.680Z,87.50
2018-12-20T15:02:19.280Z,87.00
2018-12-20T15:04:47.108Z,87.20
2018-12-20T15:08:39.991Z,86.60
2018-12-20T15:11:07.984Z,86.70
2018-12-20T15:13:37.973Z,86.30
2018-12-20T15:16:05.614Z,86.30
2018-12-20T15:18:33.154Z,86.40
2018-12-20T15:21:00.723Z,86.70
2018-12-20T15:23:31.442Z,87.10
2018-12-20T15:26:00.765Z,87.50
2018-12-20T15:28:28.485Z,87.80
2018-12-20T15:30:55.969Z,87.80
2018-12-20T15:33:24.085Z,88.10
2018-12-20T15:38:20.498Z,88.10
2018-12-20T15:40:48.244Z,88.10
2018-12-20T15:43:16.391Z,88.00
2018-12-20T15:45:44.667Z,88.00
2018-12-20T15:48:15.602Z,88.00
2018-12-20T15:50:43.407Z,88.10
2018-12-20T15:53:11.969Z,88.10
2018-12-20T15:55:40.409Z,88.50
2018-12-20T15:58:08.987Z,88.80
2018-12-20T16:00:36.580Z,87.90
2018-12-20T16:03:04.341Z,88.40
2018-12-20T16:05:31.968Z,89.10
2018-12-20T16:08:05.050Z,89.30
2018-12-20T16:10:33.133Z,89.60
2018-12-20T16:13:00.707Z,89.00
2018-12-20T16:15:29.229Z,89.30
2018-12-20T16:20:24.894Z,89.60
2018-12-20T16:22:52.552Z,89.50
2018-12-20T16:25:20.331Z,89.10
2018-12-20T16:27:47.936Z,88.90
2018-12-20T16:30:22.048Z,88.80
2018-12-20T16:32:49.535Z,88.60
2018-12-20T16:35:17.162Z,88.80
2018-12-20T16:37:52.737Z,88.30
2018-12-20T16:40:22.319Z,88.20
2018-12-20T16:42:49.845Z,88.40
2018-12-20T16:45:17.452Z,88.80
2018-12-20T16:47:45.008Z,89.10
2018-12-20T16:50:14.295Z,89.20
2018-12-20T16:52:41.977Z,89.40
2018-12-20T16:55:10.186Z,89.40
2018-12-20T16:57:37.893Z,89.30
2018-12-20T17:00:07.870Z,88.90
2018-12-20T17:02:35.530Z,88.30
2018-12-20T17:05:03.354Z,87.90
2018-12-20T17:07:30.845Z,87.70
2018-12-20T17:09:58.466Z,88.00
2018-12-20T17:12:27.154Z,88.50
2018-12-20T17:14:55.014Z,88.40
2018-12-20T17:17:22.479Z,87.80
2018-12-20T17:19:50.925Z,87.70
2018-12-20T17:22:18.573Z,88.10
2018-12-20T17:24:46.172Z,88.20
2018-12-20T17:27:13.710Z,88.10
2018-12-20T17:29:41.203Z,88.10
2018-12-20T17:32:08.962Z,88.60
2018-12-20T17:34:36.648Z,88.40
2018-12-20T17:37:04.198Z,88.20
2018-12-20T17:39:31.810Z,88.10
2018-12-20T17:41:59.401Z,88.20
2018-12-20T17:44:27.615Z,88.30
2018-12-20T17:49:30.315Z,88.00
2018-12-20T17:54:19.801Z,87.60
2018-12-20T18:01:42.460Z,87.50
2018-12-20T18:04:10.559Z,87.60
2018-12-20T18:06:39.047Z,87.60
2018-12-20T18:09:08.024Z,87.50
2018-12-20T18:11:36.590Z,87.40
2018-12-20T18:14:04.386Z,87.80
2018-12-20T18:16:32.135Z,87.90
2018-12-20T18:18:59.761Z,87.80
2018-12-20T18:21:27.473Z,88.00
2018-12-20T18:23:55.174Z,87.60
2018-12-20T18:26:22.764Z,87.50
2018-12-20T18:28:50.612Z,87.40
2018-12-20T18:33:45.952Z,87.50
2018-12-20T18:36:14.368Z,87.50
2018-12-20T18:38:41.954Z,87.50
2018-12-20T18:41:09.616Z,87.50
2018-12-20T18:43:37.315Z,87.50
2018-12-20T18:46:05.853Z,87.50
2018-12-20T18:48:33.410Z,87.80
2018-12-20T18:51:01.076Z,88.20
2018-12-20T18:53:28.574Z,88.30
2018-12-20T18:55:56.699Z,88.50
2018-12-20T19:00:52.645Z,87.90
2018-12-20T19:05:47.863Z,87.50
2018-12-20T19:08:15.400Z,87.50
2018-12-20T19:10:43.661Z,87.50
2018-12-20T19:15:43.251Z,87.40
2018-12-20T19:18:10.806Z,86.70
2018-12-20T19:20:39.863Z,87.10
2018-12-20T19:23:07.571Z,86.90
2018-12-20T19:25:40.887Z,87.50
2018-12-20T19:30:38.757Z,87.40
2018-12-20T19:33:11.174Z,87.00
2018-12-20T19:38:20.279Z,87.50
2018-12-20T19:40:42.314Z,87.50
2018-12-20T19:43:10.082Z,87.50
2018-12-20T19:45:45.829Z,87.50
2018-12-20T19:48:07.584Z,87.50
2018-12-20T19:50:37.295Z,87.50
2018-12-20T19:53:05.699Z,87.50
2018-12-20T19:55:34.579Z,87.50
2018-12-20T19:58:02.135Z,87.50
2018-12-20T20:00:35.284Z,87.40
2018-12-20T20:03:04.465Z,87.50
2018-12-20T20:05:32.171Z,87.50
2018-12-20T20:08:00.451Z,87.70
2018-12-20T20:10:28.170Z,87.50
2018-12-20T20:12:57.015Z,87.50
2018-12-20T20:18:07.222Z,87.70
2018-12-20T20:28:01.346Z,87.60
2018-12-20T20:30:29.425Z,87.60
2018-12-20T20:33:16.663Z,87.60
2018-12-20T20:38:13.915Z,87.70
2018-12-20T20:53:02.563Z,87.50
2018-12-20T20:55:30.205Z,87.50
2018-12-20T20:57:58.025Z,87.50
2018-12-20T21:00:25.640Z,87.50
2018-12-20T21:02:55.019Z,87.50
2018-12-20T21:07:50.450Z,87.60
2018-12-20T21:12:45.727Z,87.50
2018-12-20T21:15:13.804Z,87.60
2018-12-20T21:17:41.416Z,87.50
2018-12-20T21:20:11.925Z,87.50
2018-12-20T21:22:39.525Z,87.80
2018-12-20T21:25:07.276Z,87.60
2018-12-20T21:27:35.021Z,87.50
2018-12-20T21:30:02.825Z,87.50
2018-12-20T21:32:37.012Z,88.00
2018-12-20T21:35:06.674Z,88.20
2018-12-20T21:37:34.296Z,88.10
2018-12-20T21:40:02.613Z,88.20
2018-12-20T21:42:32.493Z,88.30
2018-12-20T21:45:00.363Z,88.30
2018-12-20T21:47:28.494Z,88.10
2018-12-20T21:49:56.693Z,88.10
2018-12-20T21:52:24.448Z,88.10
2018-12-20T21:54:52.230Z,88.10
2018-12-20T21:57:21.618Z,88.60
2018-12-20T21:59:49.314Z,87.60
2018-12-20T22:02:18.117Z,88.10
2018-12-20T22:04:46.394Z,88.00
2018-12-20T22:09:43.137Z,87.70
2018-12-20T22:12:10.772Z,87.80
2018-12-20T22:14:38.487Z,87.90
2018-12-20T22:19:34.257Z,88.10
2018-12-20T22:22:01.921Z,88.30
2018-12-20T22:24:29.486Z,88.10
2018-12-20T22:26:57.136Z,88.30
2018-12-20T22:31:55.057Z,88.10
2018-12-20T22:34:22.614Z,88.40
2018-12-20T22:36:51.208Z,88.20
2018-12-20T22:39:19.344Z,88.10
2018-12-20T22:44:15.917Z,87.70
2018-12-20T22:46:43.448Z,87.70
2018-12-20T23:02:18.252Z,87.80
2018-12-20T23:04:48.358Z,87.70
2018-12-20T23:07:16.205Z,87.80
2018-12-20T23:12:12.889Z,87.80
2018-12-20T23:14:41.932Z,87.60
2018-12-20T23:17:10.539Z,87.60
2018-12-20T23:19:41.080Z,87.80
2018-12-20T23:24:36.972Z,87.80
2018-12-20T23:27:04.934Z,87.70
2018-12-20T23:29:33.330Z,87.80
2018-12-20T23:32:00.945Z,87.80
2018-12-20T23:34:28.465Z,87.80
2018-12-20T23:36:56.018Z,87.60
2018-12-20T23:41:55.454Z,87.30
2018-12-20T23:44:25.196Z,87.40
2018-12-20T23:46:52.918Z,87.30
2018-12-20T23:49:20.484Z,87.30
2018-12-20T23:51:48.364Z,87.20
2018-12-20T23:54:16.183Z,87.70
2018-12-20T23:56:43.716Z,87.70
2018-12-20T23:59:11.242Z,87.60
